sensor_id;sensor_type;location;lat;lon;timestamp;temperature;humidity
11818;DHT22;5966;52.402;5.322;2023-03-22T00:01:26;10.30;99.90
11818;DHT22;5966;52.402;5.322;2023-03-22T00:03:57;10.30;99.90
11818;DHT22;5966;52.402;5.322;2023-03-22T00:06:25;10.30;99.90
11818;DHT22;5966;52.402;5.322;2023-03-22T00:08:54;10.30;99.90
11818;DHT22;5966;52.402;5.322;2023-03-22T00:11:22;10.20;99.90
11818;DHT22;5966;52.402;5.322;2023-03-22T00:13:51;10.20;99.90
11818;DHT22;5966;52.402;5.322;2023-03-22T00:16:21;10.20;99.90
11818;DHT22;5966;52.402;5.322;2023-03-22T00:18:50;10.20;99.90
11818;DHT22;5966;52.402;5.322;2023-03-22T00:21:18;10.20;99.90
11818;DHT22;5966;52.402;5.322;2023-03-22T00:23:46;10.20;99.90
11818;DHT22;5966;52.402;5.322;2023-03-22T00:26:14;10.20;99.90
11818;DHT22;5966;52.402;5.322;2023-03-22T00:28:42;10.20;99.90
11818;DHT22;5966;52.402;5.322;2023-03-22T00:31:11;10.20;99.90
11818;DHT22;5966;52.402;5.322;2023-03-22T00:33:39;10.20;99.90
11818;DHT22;5966;52.402;5.322;2023-03-22T00:36:10;10.20;99.90
11818;DHT22;5966;52.402;5.322;2023-03-22T00:38:38;10.20;99.90
11818;DHT22;5966;52.402;5.322;2023-03-22T00:41:11;10.20;99.90
11818;DHT22;5966;52.402;5.322;2023-03-22T00:43:39;10.20;99.90
11818;DHT22;5966;52.402;5.322;2023-03-22T00:46:08;10.20;99.90
11818;DHT22;5966;52.402;5.322;2023-03-22T00:48:36;10.30;99.90
11818;DHT22;5966;52.402;5.322;2023-03-22T00:51:05;10.30;99.90
11818;DHT22;5966;52.402;5.322;2023-03-22T00:53:34;10.30;99.90
11818;DHT22;5966;52.402;5.322;2023-03-22T00:56:04;10.30;99.90
11818;DHT22;5966;52.402;5.322;2023-03-22T00:58:32;10.30;99.90
11818;DHT22;5966;52.402;5.322;2023-03-22T01:01:00;10.20;99.90
11818;DHT22;5966;52.402;5.322;2023-03-22T01:03:28;10.20;99.90
11818;DHT22;5966;52.402;5.322;2023-03-22T01:05:56;10.30;99.90
11818;DHT22;5966;52.402;5.322;2023-03-22T01:08:24;10.30;99.90
11818;DHT22;5966;52.402;5.322;2023-03-22T01:11:00;10.30;99.90
11818;DHT22;5966;52.402;5.322;2023-03-22T01:13:28;10.30;99.90
11818;DHT22;5966;52.402;5.322;2023-03-22T01:15:56;10.30;99.90
11818;DHT22;5966;52.402;5.322;2023-03-22T01:18:24;10.30;99.90
11818;DHT22;5966;52.402;5.322;2023-03-22T01:20:52;10.30;99.90
11818;DHT22;5966;52.402;5.322;2023-03-22T01:23:20;10.30;99.90
11818;DHT22;5966;52.402;5.322;2023-03-22T01:25:48;10.30;99.90
11818;DHT22;5966;52.402;5.322;2023-03-22T01:28:17;10.30;99.90
11818;DHT22;5966;52.402;5.322;2023-03-22T01:30:45;10.30;99.90
11818;DHT22;5966;52.402;5.322;2023-03-22T01:33:13;10.30;99.90
11818;DHT22;5966;52.402;5.322;2023-03-22T01:35:41;10.30;99.90
11818;DHT22;5966;52.402;5.322;2023-03-22T01:38:09;10.30;99.90
11818;DHT22;5966;52.402;5.322;2023-03-22T01:40:38;10.30;99.90
11818;DHT22;5966;52.402;5.322;2023-03-22T01:43:12;10.30;99.90
11818;DHT22;5966;52.402;5.322;2023-03-22T01:45:43;10.30;99.90
11818;DHT22;5966;52.402;5.322;2023-03-22T01:48:25;10.30;99.90
11818;DHT22;5966;52.402;5.322;2023-03-22T01:51:01;10.30;99.90
11818;DHT22;5966;52.402;5.322;2023-03-22T01:53:33;10.30;99.90
11818;DHT22;5966;52.402;5.322;2023-03-22T01:56:01;10.30;99.90
11818;DHT22;5966;52.402;5.322;2023-03-22T01:58:31;10.30;99.90
11818;DHT22;5966;52.402;5.322;2023-03-22T02:01:03;10.30;99.90
11818;DHT22;5966;52.402;5.322;2023-03-22T02:03:37;10.30;99.90
11818;DHT22;5966;52.402;5.322;2023-03-22T02:06:08;10.30;99.90
11818;DHT22;5966;52.402;5.322;2023-03-22T02:08:36;10.30;99.90
11818;DHT22;5966;52.402;5.322;2023-03-22T02:11:06;10.30;99.90
11818;DHT22;5966;52.402;5.322;2023-03-22T02:13:46;10.20;99.90
11818;DHT22;5966;52.402;5.322;2023-03-22T02:16:28;10.20;99.90
11818;DHT22;5966;52.402;5.322;2023-03-22T02:19:09;10.20;99.90
11818;DHT22;5966;52.402;5.322;2023-03-22T02:22:06;10.10;99.90
11818;DHT22;5966;52.402;5.322;2023-03-22T02:25:05;10.10;99.90
11818;DHT22;5966;52.402;5.322;2023-03-22T02:31:06;10.10;99.90
11818;DHT22;5966;52.402;5.322;2023-03-22T02:37:03;10.10;99.90
11818;DHT22;5966;52.402;5.322;2023-03-22T02:39:39;10.10;99.90
11818;DHT22;5966;52.402;5.322;2023-03-22T02:42:20;10.10;99.90
11818;DHT22;5966;52.402;5.322;2023-03-22T02:44:57;10.10;99.90
11818;DHT22;5966;52.402;5.322;2023-03-22T02:47:34;10.10;99.90
11818;DHT22;5966;52.402;5.322;2023-03-22T02:50:09;10.10;99.90
11818;DHT22;5966;52.402;5.322;2023-03-22T02:52:41;10.10;99.90
11818;DHT22;5966;52.402;5.322;2023-03-22T02:55:15;10.10;99.90
11818;DHT22;5966;52.402;5.322;2023-03-22T02:57:46;10.10;99.90
11818;DHT22;5966;52.402;5.322;2023-03-22T03:00:17;10.10;99.90
11818;DHT22;5966;52.402;5.322;2023-03-22T03:02:49;10.10;99.90
11818;DHT22;5966;52.402;5.322;2023-03-22T03:05:19;10.10;99.90
11818;DHT22;5966;52.402;5.322;2023-03-22T03:07:51;10.10;99.90
11818;DHT22;5966;52.402;5.322;2023-03-22T03:10:23;10.00;99.90
11818;DHT22;5966;52.402;5.322;2023-03-22T03:12:51;10.00;99.90
11818;DHT22;5966;52.402;5.322;2023-03-22T03:15:22;10.00;99.90
11818;DHT22;5966;52.402;5.322;2023-03-22T03:18:09;10.00;99.90
11818;DHT22;5966;52.402;5.322;2023-03-22T03:20:48;10.00;99.90
11818;DHT22;5966;52.402;5.322;2023-03-22T03:23:27;10.00;99.90
11818;DHT22;5966;52.402;5.322;2023-03-22T03:26:02;10.00;99.90
11818;DHT22;5966;52.402;5.322;2023-03-22T03:28:37;10.10;99.90
11818;DHT22;5966;52.402;5.322;2023-03-22T03:31:12;10.10;99.90
11818;DHT22;5966;52.402;5.322;2023-03-22T03:33:52;10.10;99.90
11818;DHT22;5966;52.402;5.322;2023-03-22T03:36:22;10.10;99.90
11818;DHT22;5966;52.402;5.322;2023-03-22T03:38:52;10.20;99.90
11818;DHT22;5966;52.402;5.322;2023-03-22T03:41:25;10.30;99.90
11818;DHT22;5966;52.402;5.322;2023-03-22T03:43:55;10.30;99.90
11818;DHT22;5966;52.402;5.322;2023-03-22T03:46:24;10.40;99.90
11818;DHT22;5966;52.402;5.322;2023-03-22T03:48:54;10.40;99.90
11818;DHT22;5966;52.402;5.322;2023-03-22T03:51:25;10.40;99.90
11818;DHT22;5966;52.402;5.322;2023-03-22T03:53:54;10.40;99.90
11818;DHT22;5966;52.402;5.322;2023-03-22T03:56:23;10.50;99.90
11818;DHT22;5966;52.402;5.322;2023-03-22T03:58:51;10.50;99.90
11818;DHT22;5966;52.402;5.322;2023-03-22T04:01:19;10.50;99.90
11818;DHT22;5966;52.402;5.322;2023-03-22T04:03:47;10.50;99.90
11818;DHT22;5966;52.402;5.322;2023-03-22T04:06:16;10.50;99.90
11818;DHT22;5966;52.402;5.322;2023-03-22T04:08:44;10.50;99.90
11818;DHT22;5966;52.402;5.322;2023-03-22T04:11:12;10.50;99.90
11818;DHT22;5966;52.402;5.322;2023-03-22T04:13:41;10.50;99.90
11818;DHT22;5966;52.402;5.322;2023-03-22T04:16:09;10.50;99.90
11818;DHT22;5966;52.402;5.322;2023-03-22T04:18:37;10.50;99.90
11818;DHT22;5966;52.402;5.322;2023-03-22T04:21:06;10.50;99.90
11818;DHT22;5966;52.402;5.322;2023-03-22T04:23:34;10.50;99.90
11818;DHT22;5966;52.402;5.322;2023-03-22T04:26:02;10.60;99.90
11818;DHT22;5966;52.402;5.322;2023-03-22T04:28:31;10.60;99.90
11818;DHT22;5966;52.402;5.322;2023-03-22T04:31:01;10.60;99.90
11818;DHT22;5966;52.402;5.322;2023-03-22T04:33:29;10.60;99.90
11818;DHT22;5966;52.402;5.322;2023-03-22T04:35:58;10.60;99.90
11818;DHT22;5966;52.402;5.322;2023-03-22T04:38:28;10.60;99.90
11818;DHT22;5966;52.402;5.322;2023-03-22T04:40:56;10.60;99.90
11818;DHT22;5966;52.402;5.322;2023-03-22T04:43:24;10.50;99.90
11818;DHT22;5966;52.402;5.322;2023-03-22T04:45:52;10.60;99.90
11818;DHT22;5966;52.402;5.322;2023-03-22T04:48:25;10.50;99.90
11818;DHT22;5966;52.402;5.322;2023-03-22T04:50:53;10.50;99.90
11818;DHT22;5966;52.402;5.322;2023-03-22T04:53:21;10.50;99.90
11818;DHT22;5966;52.402;5.322;2023-03-22T04:55:53;10.50;99.90
11818;DHT22;5966;52.402;5.322;2023-03-22T04:58:22;10.50;99.90
11818;DHT22;5966;52.402;5.322;2023-03-22T05:00:51;10.50;99.90
11818;DHT22;5966;52.402;5.322;2023-03-22T05:03:19;10.50;99.90
11818;DHT22;5966;52.402;5.322;2023-03-22T05:05:53;10.50;99.90
11818;DHT22;5966;52.402;5.322;2023-03-22T05:08:23;10.50;99.90
11818;DHT22;5966;52.402;5.322;2023-03-22T05:10:51;10.50;99.90
11818;DHT22;5966;52.402;5.322;2023-03-22T05:13:21;10.50;99.90
11818;DHT22;5966;52.402;5.322;2023-03-22T05:15:49;10.50;99.90
11818;DHT22;5966;52.402;5.322;2023-03-22T05:18:19;10.50;99.90
11818;DHT22;5966;52.402;5.322;2023-03-22T05:20:47;10.50;99.90
11818;DHT22;5966;52.402;5.322;2023-03-22T05:23:17;10.50;99.90
11818;DHT22;5966;52.402;5.322;2023-03-22T05:25:45;10.50;99.90
11818;DHT22;5966;52.402;5.322;2023-03-22T05:28:13;10.50;99.90
11818;DHT22;5966;52.402;5.322;2023-03-22T05:30:42;10.50;99.90
11818;DHT22;5966;52.402;5.322;2023-03-22T05:33:11;10.50;99.90
11818;DHT22;5966;52.402;5.322;2023-03-22T05:35:40;10.50;99.90
11818;DHT22;5966;52.402;5.322;2023-03-22T05:38:09;10.50;99.90
11818;DHT22;5966;52.402;5.322;2023-03-22T05:40:38;10.50;99.90
11818;DHT22;5966;52.402;5.322;2023-03-22T05:43:07;10.50;99.90
11818;DHT22;5966;52.402;5.322;2023-03-22T05:45:36;10.50;99.90
11818;DHT22;5966;52.402;5.322;2023-03-22T05:48:04;10.50;99.90
11818;DHT22;5966;52.402;5.322;2023-03-22T05:50:32;10.50;99.90
11818;DHT22;5966;52.402;5.322;2023-03-22T05:53:01;10.50;99.90
11818;DHT22;5966;52.402;5.322;2023-03-22T05:55:30;10.50;99.90
11818;DHT22;5966;52.402;5.322;2023-03-22T05:57:59;10.50;99.90
11818;DHT22;5966;52.402;5.322;2023-03-22T06:00:28;10.50;99.90
11818;DHT22;5966;52.402;5.322;2023-03-22T06:02:58;10.50;99.90
11818;DHT22;5966;52.402;5.322;2023-03-22T06:05:30;10.50;99.90
11818;DHT22;5966;52.402;5.322;2023-03-22T06:07:59;10.50;99.90
11818;DHT22;5966;52.402;5.322;2023-03-22T06:10:26;10.60;99.90
11818;DHT22;5966;52.402;5.322;2023-03-22T06:12:55;10.50;99.90
11818;DHT22;5966;52.402;5.322;2023-03-22T06:15:24;10.50;99.90
11818;DHT22;5966;52.402;5.322;2023-03-22T06:17:52;10.50;99.90
11818;DHT22;5966;52.402;5.322;2023-03-22T06:20:20;10.50;99.90
11818;DHT22;5966;52.402;5.322;2023-03-22T06:22:48;10.50;99.90
11818;DHT22;5966;52.402;5.322;2023-03-22T06:25:16;10.50;99.90
11818;DHT22;5966;52.402;5.322;2023-03-22T06:27:44;10.50;99.90
11818;DHT22;5966;52.402;5.322;2023-03-22T06:30:12;10.50;99.90
11818;DHT22;5966;52.402;5.322;2023-03-22T06:32:42;10.50;99.90
11818;DHT22;5966;52.402;5.322;2023-03-22T06:35:10;10.50;99.90
11818;DHT22;5966;52.402;5.322;2023-03-22T06:37:38;10.50;99.90
11818;DHT22;5966;52.402;5.322;2023-03-22T06:40:07;10.50;99.90
11818;DHT22;5966;52.402;5.322;2023-03-22T06:42:36;10.60;99.90
11818;DHT22;5966;52.402;5.322;2023-03-22T06:45:05;10.60;99.90
11818;DHT22;5966;52.402;5.322;2023-03-22T06:47:33;10.60;99.90
11818;DHT22;5966;52.402;5.322;2023-03-22T06:50:03;10.60;99.90
11818;DHT22;5966;52.402;5.322;2023-03-22T06:52:31;10.60;99.90
11818;DHT22;5966;52.402;5.322;2023-03-22T06:54:59;10.70;99.90
11818;DHT22;5966;52.402;5.322;2023-03-22T06:57:27;10.70;99.90
11818;DHT22;5966;52.402;5.322;2023-03-22T06:59:55;10.70;99.90
11818;DHT22;5966;52.402;5.322;2023-03-22T07:02:23;10.70;99.90
11818;DHT22;5966;52.402;5.322;2023-03-22T07:04:51;10.80;99.90
11818;DHT22;5966;52.402;5.322;2023-03-22T07:07:20;10.80;99.90
11818;DHT22;5966;52.402;5.322;2023-03-22T07:09:48;10.80;99.90
11818;DHT22;5966;52.402;5.322;2023-03-22T07:12:16;10.80;99.90
11818;DHT22;5966;52.402;5.322;2023-03-22T07:14:45;10.80;99.90
11818;DHT22;5966;52.402;5.322;2023-03-22T07:17:13;10.80;99.90
11818;DHT22;5966;52.402;5.322;2023-03-22T07:19:41;10.80;99.90
11818;DHT22;5966;52.402;5.322;2023-03-22T07:22:10;10.80;99.90
11818;DHT22;5966;52.402;5.322;2023-03-22T07:24:40;10.80;99.90
11818;DHT22;5966;52.402;5.322;2023-03-22T07:27:22;10.80;99.90
11818;DHT22;5966;52.402;5.322;2023-03-22T07:29:50;10.80;99.90
11818;DHT22;5966;52.402;5.322;2023-03-22T07:32:18;10.80;99.90
11818;DHT22;5966;52.402;5.322;2023-03-22T07:34:46;10.80;99.90
11818;DHT22;5966;52.402;5.322;2023-03-22T07:37:14;10.80;99.90
11818;DHT22;5966;52.402;5.322;2023-03-22T07:39:43;10.80;99.90
11818;DHT22;5966;52.402;5.322;2023-03-22T07:42:11;10.90;99.90
11818;DHT22;5966;52.402;5.322;2023-03-22T07:44:39;10.90;99.90
11818;DHT22;5966;52.402;5.322;2023-03-22T07:47:08;10.90;99.90
11818;DHT22;5966;52.402;5.322;2023-03-22T07:49:36;10.90;99.90
11818;DHT22;5966;52.402;5.322;2023-03-22T07:52:04;10.90;99.90
11818;DHT22;5966;52.402;5.322;2023-03-22T07:54:32;11.00;99.90
11818;DHT22;5966;52.402;5.322;2023-03-22T07:57:01;11.00;99.90
11818;DHT22;5966;52.402;5.322;2023-03-22T07:59:29;11.00;99.90
11818;DHT22;5966;52.402;5.322;2023-03-22T08:01:57;11.00;99.90
11818;DHT22;5966;52.402;5.322;2023-03-22T08:04:25;11.00;99.90
11818;DHT22;5966;52.402;5.322;2023-03-22T08:06:53;11.10;99.90
11818;DHT22;5966;52.402;5.322;2023-03-22T08:09:24;11.10;99.90
11818;DHT22;5966;52.402;5.322;2023-03-22T08:11:52;11.10;99.90
11818;DHT22;5966;52.402;5.322;2023-03-22T08:14:21;11.10;99.90
11818;DHT22;5966;52.402;5.322;2023-03-22T08:17:01;11.10;99.90
11818;DHT22;5966;52.402;5.322;2023-03-22T08:19:29;11.10;99.90
11818;DHT22;5966;52.402;5.322;2023-03-22T08:21:59;11.10;99.90
11818;DHT22;5966;52.402;5.322;2023-03-22T08:24:27;11.10;99.90
11818;DHT22;5966;52.402;5.322;2023-03-22T08:26:54;11.10;99.90
11818;DHT22;5966;52.402;5.322;2023-03-22T08:29:24;11.10;99.90
11818;DHT22;5966;52.402;5.322;2023-03-22T08:31:53;11.20;99.90
11818;DHT22;5966;52.402;5.322;2023-03-22T08:34:21;11.20;99.90
11818;DHT22;5966;52.402;5.322;2023-03-22T08:36:49;11.20;99.90
11818;DHT22;5966;52.402;5.322;2023-03-22T08:39:17;11.30;99.90
11818;DHT22;5966;52.402;5.322;2023-03-22T08:41:45;11.30;99.90
11818;DHT22;5966;52.402;5.322;2023-03-22T08:44:13;11.40;99.90
11818;DHT22;5966;52.402;5.322;2023-03-22T08:46:43;11.30;99.90
11818;DHT22;5966;52.402;5.322;2023-03-22T08:49:11;11.30;99.90
11818;DHT22;5966;52.402;5.322;2023-03-22T08:51:39;11.30;99.90
11818;DHT22;5966;52.402;5.322;2023-03-22T08:54:07;11.20;99.90
11818;DHT22;5966;52.402;5.322;2023-03-22T08:56:35;11.20;99.90
11818;DHT22;5966;52.402;5.322;2023-03-22T08:59:04;11.20;99.90
11818;DHT22;5966;52.402;5.322;2023-03-22T09:01:33;11.20;99.90
11818;DHT22;5966;52.402;5.322;2023-03-22T09:04:03;11.20;99.90
11818;DHT22;5966;52.402;5.322;2023-03-22T09:06:34;11.10;99.90
11818;DHT22;5966;52.402;5.322;2023-03-22T09:09:03;11.10;99.90
11818;DHT22;5966;52.402;5.322;2023-03-22T09:11:31;11.00;99.90
11818;DHT22;5966;52.402;5.322;2023-03-22T09:13:59;11.00;99.90
11818;DHT22;5966;52.402;5.322;2023-03-22T09:16:26;11.00;99.90
11818;DHT22;5966;52.402;5.322;2023-03-22T09:18:54;11.00;99.90
11818;DHT22;5966;52.402;5.322;2023-03-22T09:21:24;10.90;99.90
11818;DHT22;5966;52.402;5.322;2023-03-22T09:23:52;10.90;99.90
11818;DHT22;5966;52.402;5.322;2023-03-22T09:26:20;10.90;99.90
11818;DHT22;5966;52.402;5.322;2023-03-22T09:28:48;10.90;99.90
11818;DHT22;5966;52.402;5.322;2023-03-22T09:31:16;10.80;99.90
11818;DHT22;5966;52.402;5.322;2023-03-22T09:33:46;10.70;99.90
11818;DHT22;5966;52.402;5.322;2023-03-22T09:36:14;10.70;99.90
11818;DHT22;5966;52.402;5.322;2023-03-22T09:38:44;10.60;99.90
11818;DHT22;5966;52.402;5.322;2023-03-22T09:41:16;10.60;99.90
11818;DHT22;5966;52.402;5.322;2023-03-22T09:43:48;10.60;99.90
11818;DHT22;5966;52.402;5.322;2023-03-22T09:46:22;10.60;99.90
11818;DHT22;5966;52.402;5.322;2023-03-22T09:48:51;10.60;99.90
11818;DHT22;5966;52.402;5.322;2023-03-22T09:51:29;10.60;99.90
11818;DHT22;5966;52.402;5.322;2023-03-22T09:54:01;10.60;99.90
11818;DHT22;5966;52.402;5.322;2023-03-22T09:56:30;10.60;99.90
11818;DHT22;5966;52.402;5.322;2023-03-22T09:59:05;10.60;99.90
11818;DHT22;5966;52.402;5.322;2023-03-22T10:01:38;10.60;99.90
11818;DHT22;5966;52.402;5.322;2023-03-22T10:04:35;10.60;99.90
11818;DHT22;5966;52.402;5.322;2023-03-22T10:07:16;10.50;99.90
11818;DHT22;5966;52.402;5.322;2023-03-22T10:09:54;10.50;99.90
11818;DHT22;5966;52.402;5.322;2023-03-22T10:12:27;10.50;99.90
11818;DHT22;5966;52.402;5.322;2023-03-22T10:15:03;10.50;99.90
11818;DHT22;5966;52.402;5.322;2023-03-22T10:17:34;10.50;99.90
11818;DHT22;5966;52.402;5.322;2023-03-22T10:20:05;10.50;99.90
11818;DHT22;5966;52.402;5.322;2023-03-22T10:22:39;10.50;99.90
11818;DHT22;5966;52.402;5.322;2023-03-22T10:25:16;10.50;99.90
11818;DHT22;5966;52.402;5.322;2023-03-22T10:27:48;10.50;99.90
11818;DHT22;5966;52.402;5.322;2023-03-22T10:30:20;10.50;99.90
11818;DHT22;5966;52.402;5.322;2023-03-22T10:32:51;10.50;99.90
11818;DHT22;5966;52.402;5.322;2023-03-22T10:35:24;10.50;99.90
11818;DHT22;5966;52.402;5.322;2023-03-22T10:37:54;10.50;99.90
11818;DHT22;5966;52.402;5.322;2023-03-22T10:40:26;10.40;99.90
11818;DHT22;5966;52.402;5.322;2023-03-22T10:42:56;10.50;99.90
11818;DHT22;5966;52.402;5.322;2023-03-22T10:45:27;10.50;99.90
11818;DHT22;5966;52.402;5.322;2023-03-22T10:47:59;10.50;99.90
11818;DHT22;5966;52.402;5.322;2023-03-22T10:50:31;10.50;99.90
11818;DHT22;5966;52.402;5.322;2023-03-22T10:53:06;10.50;99.90
11818;DHT22;5966;52.402;5.322;2023-03-22T10:55:40;10.50;99.90
11818;DHT22;5966;52.402;5.322;2023-03-22T10:58:14;10.50;99.90
11818;DHT22;5966;52.402;5.322;2023-03-22T11:00:44;10.50;99.90
11818;DHT22;5966;52.402;5.322;2023-03-22T11:03:25;10.50;99.90
11818;DHT22;5966;52.402;5.322;2023-03-22T11:05:59;10.50;99.90
11818;DHT22;5966;52.402;5.322;2023-03-22T11:08:27;10.60;99.90
11818;DHT22;5966;52.402;5.322;2023-03-22T11:10:57;10.60;99.90
11818;DHT22;5966;52.402;5.322;2023-03-22T11:13:26;10.60;99.90
11818;DHT22;5966;52.402;5.322;2023-03-22T11:15:59;10.70;99.90
11818;DHT22;5966;52.402;5.322;2023-03-22T11:18:33;10.70;99.90
11818;DHT22;5966;52.402;5.322;2023-03-22T11:21:06;10.80;99.90
11818;DHT22;5966;52.402;5.322;2023-03-22T11:23:37;10.80;99.90
11818;DHT22;5966;52.402;5.322;2023-03-22T11:26:11;10.80;99.90
11818;DHT22;5966;52.402;5.322;2023-03-22T11:28:44;10.80;99.90
11818;DHT22;5966;52.402;5.322;2023-03-22T11:31:14;10.80;99.90
11818;DHT22;5966;52.402;5.322;2023-03-22T11:33:54;10.80;99.90
11818;DHT22;5966;52.402;5.322;2023-03-22T11:36:23;10.80;99.90
11818;DHT22;5966;52.402;5.322;2023-03-22T11:38:56;10.80;99.90
11818;DHT22;5966;52.402;5.322;2023-03-22T11:41:27;10.80;99.90
11818;DHT22;5966;52.402;5.322;2023-03-22T11:43:59;10.80;99.90
11818;DHT22;5966;52.402;5.322;2023-03-22T11:46:29;10.90;99.90
11818;DHT22;5966;52.402;5.322;2023-03-22T11:49:00;10.90;99.90
11818;DHT22;5966;52.402;5.322;2023-03-22T11:51:31;10.90;99.90
11818;DHT22;5966;52.402;5.322;2023-03-22T11:54:05;10.90;99.90
11818;DHT22;5966;52.402;5.322;2023-03-22T11:56:40;10.90;99.90
11818;DHT22;5966;52.402;5.322;2023-03-22T11:59:13;10.90;99.90
11818;DHT22;5966;52.402;5.322;2023-03-22T12:01:47;10.90;99.90
11818;DHT22;5966;52.402;5.322;2023-03-22T12:04:18;10.90;99.90
11818;DHT22;5966;52.402;5.322;2023-03-22T12:06:51;10.90;99.90
11818;DHT22;5966;52.402;5.322;2023-03-22T12:09:27;11.00;99.90
11818;DHT22;5966;52.402;5.322;2023-03-22T12:11:59;11.00;99.90
11818;DHT22;5966;52.402;5.322;2023-03-22T12:14:31;11.00;99.90
11818;DHT22;5966;52.402;5.322;2023-03-22T12:17:04;11.00;99.90
11818;DHT22;5966;52.402;5.322;2023-03-22T12:19:48;11.00;99.90
11818;DHT22;5966;52.402;5.322;2023-03-22T12:22:22;11.00;99.90
11818;DHT22;5966;52.402;5.322;2023-03-22T12:24:51;11.00;99.90
11818;DHT22;5966;52.402;5.322;2023-03-22T12:27:25;11.00;99.90
11818;DHT22;5966;52.402;5.322;2023-03-22T12:29:58;11.00;99.90
11818;DHT22;5966;52.402;5.322;2023-03-22T12:32:29;11.00;99.90
11818;DHT22;5966;52.402;5.322;2023-03-22T12:34:59;11.00;99.90
11818;DHT22;5966;52.402;5.322;2023-03-22T12:37:46;11.00;99.90
11818;DHT22;5966;52.402;5.322;2023-03-22T12:40:20;11.00;99.90
11818;DHT22;5966;52.402;5.322;2023-03-22T12:42:57;11.00;99.90
11818;DHT22;5966;52.402;5.322;2023-03-22T12:45:29;11.10;99.90
11818;DHT22;5966;52.402;5.322;2023-03-22T12:48:04;11.00;99.90
11818;DHT22;5966;52.402;5.322;2023-03-22T12:50:36;11.00;99.90
11818;DHT22;5966;52.402;5.322;2023-03-22T12:53:08;11.00;99.90
11818;DHT22;5966;52.402;5.322;2023-03-22T12:55:38;11.00;99.90
11818;DHT22;5966;52.402;5.322;2023-03-22T12:58:11;11.10;99.90
11818;DHT22;5966;52.402;5.322;2023-03-22T13:00:43;11.10;99.90
11818;DHT22;5966;52.402;5.322;2023-03-22T13:03:22;11.10;99.90
11818;DHT22;5966;52.402;5.322;2023-03-22T13:06:00;11.10;99.90
11818;DHT22;5966;52.402;5.322;2023-03-22T13:11:26;11.10;99.90
11818;DHT22;5966;52.402;5.322;2023-03-22T13:13:56;11.10;99.90
11818;DHT22;5966;52.402;5.322;2023-03-22T13:16:49;11.10;99.90
11818;DHT22;5966;52.402;5.322;2023-03-22T13:19:31;11.10;99.90
11818;DHT22;5966;52.402;5.322;2023-03-22T13:22:21;11.10;99.90
11818;DHT22;5966;52.402;5.322;2023-03-22T13:25:04;11.10;99.90
11818;DHT22;5966;52.402;5.322;2023-03-22T13:27:40;11.10;99.90
11818;DHT22;5966;52.402;5.322;2023-03-22T13:30:22;11.20;99.90
11818;DHT22;5966;52.402;5.322;2023-03-22T13:32:52;11.20;99.90
11818;DHT22;5966;52.402;5.322;2023-03-22T13:35:24;11.20;99.90
11818;DHT22;5966;52.402;5.322;2023-03-22T13:38:00;11.20;99.90
11818;DHT22;5966;52.402;5.322;2023-03-22T13:40:33;11.20;99.90
11818;DHT22;5966;52.402;5.322;2023-03-22T13:43:20;11.30;99.90
11818;DHT22;5966;52.402;5.322;2023-03-22T13:46:24;11.30;99.90
11818;DHT22;5966;52.402;5.322;2023-03-22T13:49:19;11.30;99.90
11818;DHT22;5966;52.402;5.322;2023-03-22T13:51:52;11.30;99.90
11818;DHT22;5966;52.402;5.322;2023-03-22T13:54:22;11.30;99.90
11818;DHT22;5966;52.402;5.322;2023-03-22T13:56:55;11.40;99.90
11818;DHT22;5966;52.402;5.322;2023-03-22T13:59:29;11.40;99.90
11818;DHT22;5966;52.402;5.322;2023-03-22T14:02:08;11.40;99.90
11818;DHT22;5966;52.402;5.322;2023-03-22T14:04:46;11.40;99.90
11818;DHT22;5966;52.402;5.322;2023-03-22T14:07:22;11.50;99.90
11818;DHT22;5966;52.402;5.322;2023-03-22T14:09:54;11.50;99.90
11818;DHT22;5966;52.402;5.322;2023-03-22T14:12:26;11.50;99.90
11818;DHT22;5966;52.402;5.322;2023-03-22T14:15:00;11.50;99.90
11818;DHT22;5966;52.402;5.322;2023-03-22T14:17:34;11.50;99.90
11818;DHT22;5966;52.402;5.322;2023-03-22T14:20:05;11.50;99.90
11818;DHT22;5966;52.402;5.322;2023-03-22T14:22:38;11.50;99.90
11818;DHT22;5966;52.402;5.322;2023-03-22T14:25:08;11.50;99.90
11818;DHT22;5966;52.402;5.322;2023-03-22T14:27:35;11.60;99.90
11818;DHT22;5966;52.402;5.322;2023-03-22T14:30:03;11.60;99.90
11818;DHT22;5966;52.402;5.322;2023-03-22T14:32:32;11.60;99.90
11818;DHT22;5966;52.402;5.322;2023-03-22T14:35:07;11.60;99.90
11818;DHT22;5966;52.402;5.322;2023-03-22T14:37:35;11.60;99.90
11818;DHT22;5966;52.402;5.322;2023-03-22T14:40:12;11.60;99.90
11818;DHT22;5966;52.402;5.322;2023-03-22T14:42:41;11.60;99.90
11818;DHT22;5966;52.402;5.322;2023-03-22T14:45:16;11.60;99.90
11818;DHT22;5966;52.402;5.322;2023-03-22T14:47:45;11.70;99.90
11818;DHT22;5966;52.402;5.322;2023-03-22T14:50:14;11.70;99.90
11818;DHT22;5966;52.402;5.322;2023-03-22T14:52:42;11.60;99.90
11818;DHT22;5966;52.402;5.322;2023-03-22T14:55:17;11.70;99.90
11818;DHT22;5966;52.402;5.322;2023-03-22T14:57:48;11.60;99.90
11818;DHT22;5966;52.402;5.322;2023-03-22T15:00:16;11.70;99.90
11818;DHT22;5966;52.402;5.322;2023-03-22T15:02:47;11.70;99.90
11818;DHT22;5966;52.402;5.322;2023-03-22T15:05:17;11.70;99.90
11818;DHT22;5966;52.402;5.322;2023-03-22T15:07:48;11.70;99.90
11818;DHT22;5966;52.402;5.322;2023-03-22T15:10:18;11.70;99.90
11818;DHT22;5966;52.402;5.322;2023-03-22T15:12:47;11.80;99.90
11818;DHT22;5966;52.402;5.322;2023-03-22T15:15:17;11.80;99.90
11818;DHT22;5966;52.402;5.322;2023-03-22T15:17:46;11.80;99.90
11818;DHT22;5966;52.402;5.322;2023-03-22T15:20:27;11.80;99.90
11818;DHT22;5966;52.402;5.322;2023-03-22T15:22:56;11.80;99.90
11818;DHT22;5966;52.402;5.322;2023-03-22T15:25:28;11.80;99.90
11818;DHT22;5966;52.402;5.322;2023-03-22T15:45:11;11.70;99.90
11818;DHT22;5966;52.402;5.322;2023-03-22T15:47:44;12.00;99.90
11818;DHT22;5966;52.402;5.322;2023-03-22T15:50:16;11.90;99.90
11818;DHT22;5966;52.402;5.322;2023-03-22T15:52:47;11.90;99.90
11818;DHT22;5966;52.402;5.322;2023-03-22T15:55:16;11.90;99.90
11818;DHT22;5966;52.402;5.322;2023-03-22T15:57:48;11.80;99.90
11818;DHT22;5966;52.402;5.322;2023-03-22T16:00:22;11.80;99.90
11818;DHT22;5966;52.402;5.322;2023-03-22T16:02:53;11.80;99.90
11818;DHT22;5966;52.402;5.322;2023-03-22T16:05:20;11.80;99.90
11818;DHT22;5966;52.402;5.322;2023-03-22T16:07:47;11.80;99.90
11818;DHT22;5966;52.402;5.322;2023-03-22T16:10:15;11.80;99.90
11818;DHT22;5966;52.402;5.322;2023-03-22T16:12:43;11.70;99.90
11818;DHT22;5966;52.402;5.322;2023-03-22T16:15:13;11.70;99.90
11818;DHT22;5966;52.402;5.322;2023-03-22T16:17:42;11.70;99.90
11818;DHT22;5966;52.402;5.322;2023-03-22T16:20:10;11.70;99.90
11818;DHT22;5966;52.402;5.322;2023-03-22T16:22:37;11.60;99.90
11818;DHT22;5966;52.402;5.322;2023-03-22T16:25:05;11.60;99.90
11818;DHT22;5966;52.402;5.322;2023-03-22T16:27:32;11.60;99.90
11818;DHT22;5966;52.402;5.322;2023-03-22T16:29:59;11.60;99.90
11818;DHT22;5966;52.402;5.322;2023-03-22T16:32:27;11.50;99.90
11818;DHT22;5966;52.402;5.322;2023-03-22T16:34:55;11.50;99.90
11818;DHT22;5966;52.402;5.322;2023-03-22T16:37:24;11.50;99.90